sensor_id;sensor_type;location;lat;lon;timestamp;pressure;altitude;pressure_sealevel;temperature;humidity
39699;BME280;25372;50.582;12.250;2022-09-17T00:04:46;98780.41;;;9.89;78.76
39699;BME280;25372;50.582;12.250;2022-09-17T00:15:09;98770.03;;;10.01;78.52
39699;BME280;25372;50.582;12.250;2022-09-17T00:25:30;98783.06;;;10.09;78.37
39699;BME280;25372;50.582;12.250;2022-09-17T00:35:58;98786.69;;;10.22;77.99
39699;BME280;25372;50.582;12.250;2022-09-17T00:46:25;98779.94;;;10.26;78.14
39699;BME280;25372;50.582;12.250;2022-09-17T00:56:50;98788.69;;;10.26;77.68
39699;BME280;25372;50.582;12.250;2022-09-17T01:07:18;98788.72;;;10.20;79.06
39699;BME280;25372;50.582;12.250;2022-09-17T01:17:50;98753.69;;;10.24;78.58
39699;BME280;25372;50.582;12.250;2022-09-17T01:28:30;98762.81;;;10.42;77.78
39699;BME280;25372;50.582;12.250;2022-09-17T01:39:00;98768.53;;;10.39;78.75
39699;BME280;25372;50.582;12.250;2022-09-17T01:49:23;98744.53;;;10.20;78.45
39699;BME280;25372;50.582;12.250;2022-09-17T01:59:48;98793.59;;;10.36;77.61
39699;BME280;25372;50.582;12.250;2022-09-17T02:10:16;98753.69;;;10.18;78.88
39699;BME280;25372;50.582;12.250;2022-09-17T02:20:41;98722.19;;;9.89;78.60
39699;BME280;25372;50.582;12.250;2022-09-17T02:31:04;98747.84;;;10.02;79.52
39699;BME280;25372;50.582;12.250;2022-09-17T02:41:35;98773.84;;;10.25;80.02
39699;BME280;25372;50.582;12.250;2022-09-17T02:52:05;98771.63;;;10.36;79.69
39699;BME280;25372;50.582;12.250;2022-09-17T03:02:32;98765.88;;;10.32;80.86
39699;BME280;25372;50.582;12.250;2022-09-17T03:12:56;98760.81;;;10.37;80.62
39699;BME280;25372;50.582;12.250;2022-09-17T03:23:18;98762.84;;;10.28;80.19
39699;BME280;25372;50.582;12.250;2022-09-17T03:33:39;98761.63;;;10.18;81.99
39699;BME280;25372;50.582;12.250;2022-09-17T03:44:02;98800.50;;;10.30;81.79
39699;BME280;25372;50.582;12.250;2022-09-17T03:54:22;98762.66;;;10.10;82.37
39699;BME280;25372;50.582;12.250;2022-09-17T04:04:45;98801.34;;;10.24;83.39
39699;BME280;25372;50.582;12.250;2022-09-17T04:15:07;98792.38;;;10.19;84.34
39699;BME280;25372;50.582;12.250;2022-09-17T04:25:29;98809.72;;;10.15;86.66
39699;BME280;25372;50.582;12.250;2022-09-17T04:35:50;98815.44;;;9.98;88.61
39699;BME280;25372;50.582;12.250;2022-09-17T04:46:12;98811.34;;;9.95;90.76
39699;BME280;25372;50.582;12.250;2022-09-17T04:56:36;98812.38;;;9.88;91.08
39699;BME280;25372;50.582;12.250;2022-09-17T05:06:59;98818.06;;;9.91;91.26
39699;BME280;25372;50.582;12.250;2022-09-17T05:17:20;98807.06;;;9.94;93.25
39699;BME280;25372;50.582;12.250;2022-09-17T05:27:42;98825.63;;;9.88;94.12
39699;BME280;25372;50.582;12.250;2022-09-17T05:38:04;98814.22;;;10.01;93.84
39699;BME280;25372;50.582;12.250;2022-09-17T05:48:27;98841.66;;;10.33;92.45
39699;BME280;25372;50.582;12.250;2022-09-17T05:58:48;98840.03;;;10.45;93.42
39699;BME280;25372;50.582;12.250;2022-09-17T06:09:10;98802.34;;;10.37;93.35
39699;BME280;25372;50.582;12.250;2022-09-17T06:19:32;98828.41;;;10.53;94.90
39699;BME280;25372;50.582;12.250;2022-09-17T06:29:55;98818.44;;;10.49;94.25
39699;BME280;25372;50.582;12.250;2022-09-17T06:40:16;98847.28;;;10.84;94.58
39699;BME280;25372;50.582;12.250;2022-09-17T06:50:38;98849.34;;;10.68;95.67
39699;BME280;25372;50.582;12.250;2022-09-17T07:01:00;98825.56;;;10.48;96.99
39699;BME280;25372;50.582;12.250;2022-09-17T07:11:22;98850.38;;;10.67;99.07
39699;BME280;25372;50.582;12.250;2022-09-17T07:21:43;98857.59;;;10.40;100.00
39699;BME280;25372;50.582;12.250;2022-09-17T07:32:05;98854.91;;;10.46;100.00
39699;BME280;25372;50.582;12.250;2022-09-17T07:42:26;98880.69;;;10.98;100.00
39699;BME280;25372;50.582;12.250;2022-09-17T07:52:48;98885.28;;;11.16;96.34
39699;BME280;25372;50.582;12.250;2022-09-17T08:03:10;98881.28;;;11.39;92.89
39699;BME280;25372;50.582;12.250;2022-09-17T08:13:32;98920.75;;;11.60;92.12
39699;BME280;25372;50.582;12.250;2022-09-17T08:23:53;98913.81;;;12.23;87.87
39699;BME280;25372;50.582;12.250;2022-09-17T08:34:15;98940.47;;;12.16;87.75
39699;BME280;25372;50.582;12.250;2022-09-17T08:44:39;98952.22;;;12.27;82.83
39699;BME280;25372;50.582;12.250;2022-09-17T08:55:06;98959.06;;;12.42;80.90
39699;BME280;25372;50.582;12.250;2022-09-17T09:05:41;98945.06;;;12.97;75.47
39699;BME280;25372;50.582;12.250;2022-09-17T09:16:11;98949.78;;;12.95;78.66
39699;BME280;25372;50.582;12.250;2022-09-17T09:26:40;98936.75;;;13.60;72.88
39699;BME280;25372;50.582;12.250;2022-09-17T09:37:11;98970.69;;;13.47;74.41
39699;BME280;25372;50.582;12.250;2022-09-17T09:47:53;98963.34;;;13.79;76.01
39699;BME280;25372;50.582;12.250;2022-09-17T09:58:28;98944.69;;;14.33;71.24
39699;BME280;25372;50.582;12.250;2022-09-17T10:09:11;98955.91;;;13.32;74.67
39699;BME280;25372;50.582;12.250;2022-09-17T10:19:34;98983.28;;;10.71;90.02
39699;BME280;25372;50.582;12.250;2022-09-17T10:30:01;98984.78;;;11.32;94.86
39699;BME280;25372;50.582;12.250;2022-09-17T10:40:27;98963.94;;;11.81;87.69
39699;BME280;25372;50.582;12.250;2022-09-17T10:50:52;98983.88;;;11.51;89.26
39699;BME280;25372;50.582;12.250;2022-09-17T11:01:23;98983.03;;;13.04;86.24
39699;BME280;25372;50.582;12.250;2022-09-17T11:12:09;98956.50;;;12.79;83.55
39699;BME280;25372;50.582;12.250;2022-09-17T11:22:42;98951.81;;;12.74;83.43
39699;BME280;25372;50.582;12.250;2022-09-17T11:33:17;98929.59;;;13.73;80.88
39699;BME280;25372;50.582;12.250;2022-09-17T11:43:47;98972.19;;;12.62;73.62
39699;BME280;25372;50.582;12.250;2022-09-17T11:54:17;98969.06;;;11.82;81.71
39699;BME280;25372;50.582;12.250;2022-09-17T12:04:45;98980.22;;;12.80;79.80
39699;BME280;25372;50.582;12.250;2022-09-17T12:15:14;98980.28;;;13.29;79.70
39699;BME280;25372;50.582;12.250;2022-09-17T12:25:43;98969.91;;;13.46;75.84
39699;BME280;25372;50.582;12.250;2022-09-17T12:36:19;98950.09;;;14.03;76.97
39699;BME280;25372;50.582;12.250;2022-09-17T12:46:59;98930.06;;;14.12;77.51
39699;BME280;25372;50.582;12.250;2022-09-17T12:57:32;98889.59;;;13.49;75.85
39699;BME280;25372;50.582;12.250;2022-09-17T13:08:26;98915.63;;;14.43;73.07
39699;BME280;25372;50.582;12.250;2022-09-17T13:18:57;98921.69;;;12.62;81.49
39699;BME280;25372;50.582;12.250;2022-09-17T13:40:21;98924.13;;;12.63;79.53
39699;BME280;25372;50.582;12.250;2022-09-17T13:50:43;98903.19;;;13.71;73.57
39699;BME280;25372;50.582;12.250;2022-09-17T14:01:09;98913.84;;;13.41;70.80
39699;BME280;25372;50.582;12.250;2022-09-17T14:11:38;98893.44;;;13.53;70.05
39699;BME280;25372;50.582;12.250;2022-09-17T14:22:07;98880.03;;;14.26;68.00
39699;BME280;25372;50.582;12.250;2022-09-17T14:32:36;98881.06;;;14.13;61.65
39699;BME280;25372;50.582;12.250;2022-09-17T14:43:01;98885.53;;;14.01;67.27
39699;BME280;25372;50.582;12.250;2022-09-17T14:53:23;98879.69;;;13.38;66.19
39699;BME280;25372;50.582;12.250;2022-09-17T15:03:44;98858.97;;;12.91;71.30
39699;BME280;25372;50.582;12.250;2022-09-17T15:14:07;98854.28;;;14.55;59.19
39699;BME280;25372;50.582;12.250;2022-09-17T15:24:39;98847.16;;;15.71;59.53
39699;BME280;25372;50.582;12.250;2022-09-17T15:35:23;98854.50;;;13.83;62.33
39699;BME280;25372;50.582;12.250;2022-09-17T15:45:47;98871.00;;;13.61;58.12
39699;BME280;25372;50.582;12.250;2022-09-17T15:56:15;98867.75;;;13.59;61.76
39699;BME280;25372;50.582;12.250;2022-09-17T16:06:47;98882.56;;;12.69;62.75
39699;BME280;25372;50.582;12.250;2022-09-17T16:17:17;98872.34;;;12.47;61.26
39699;BME280;25372;50.582;12.250;2022-09-17T16:27:52;98867.59;;;12.06;63.35
39699;BME280;25372;50.582;12.250;2022-09-17T16:38:15;98877.75;;;11.83;69.62
39699;BME280;25372;50.582;12.250;2022-09-17T16:48:39;98889.56;;;11.88;72.77
39699;BME280;25372;50.582;12.250;2022-09-17T16:59:02;98895.66;;;11.95;67.51
39699;BME280;25372;50.582;12.250;2022-09-17T17:09:25;98908.13;;;11.56;70.15
39699;BME280;25372;50.582;12.250;2022-09-17T17:19:46;98899.63;;;11.02;72.66
39699;BME280;25372;50.582;12.250;2022-09-17T17:30:09;98911.75;;;10.64;70.18
39699;BME280;25372;50.582;12.250;2022-09-17T17:40:35;98911.97;;;10.56;70.65
39699;BME280;25372;50.582;12.250;2022-09-17T17:51:01;98938.66;;;10.48;71.75
39699;BME280;25372;50.582;12.250;2022-09-17T18:01:27;98938.06;;;10.39;70.49
39699;BME280;25372;50.582;12.250;2022-09-17T18:11:49;98958.41;;;10.18;72.60
39699;BME280;25372;50.582;12.250;2022-09-17T18:22:10;98962.06;;;10.04;74.19
39699;BME280;25372;50.582;12.250;2022-09-17T18:32:33;98958.34;;;9.85;75.70
39699;BME280;25372;50.582;12.250;2022-09-17T18:42:53;98962.78;;;9.64;76.34
39699;BME280;25372;50.582;12.250;2022-09-17T18:53:15;98974.28;;;9.36;80.31
39699;BME280;25372;50.582;12.250;2022-09-17T19:03:36;98986.53;;;9.51;80.04
39699;BME280;25372;50.582;12.250;2022-09-17T19:13:58;98976.84;;;9.71;77.97
39699;BME280;25372;50.582;12.250;2022-09-17T19:24:19;98965.84;;;9.68;81.44
39699;BME280;25372;50.582;12.250;2022-09-17T19:34:41;98968.66;;;9.59;79.38
39699;BME280;25372;50.582;12.250;2022-09-17T19:45:02;98979.31;;;9.80;79.49
39699;BME280;25372;50.582;12.250;2022-09-17T19:55:25;98970.09;;;9.62;83.00
39699;BME280;25372;50.582;12.250;2022-09-17T20:05:46;98981.28;;;9.16;88.05
39699;BME280;25372;50.582;12.250;2022-09-17T20:16:09;98993.66;;;9.08;91.18
39699;BME280;25372;50.582;12.250;2022-09-17T20:26:30;98980.88;;;8.77;93.01
39699;BME280;25372;50.582;12.250;2022-09-17T20:36:53;98929.75;;;8.42;95.90
39699;BME280;25372;50.582;12.250;2022-09-17T20:47:13;98959.91;;;8.76;94.62
39699;BME280;25372;50.582;12.250;2022-09-17T20:57:35;98941.97;;;8.43;97.94
39699;BME280;25372;50.582;12.250;2022-09-17T21:07:56;98945.09;;;8.46;98.72
39699;BME280;25372;50.582;12.250;2022-09-17T21:18:18;98947.34;;;8.49;97.84
39699;BME280;25372;50.582;12.250;2022-09-17T21:28:41;98944.78;;;8.63;97.46
39699;BME280;25372;50.582;12.250;2022-09-17T21:39:04;98940.69;;;8.60;96.71
39699;BME280;25372;50.582;12.250;2022-09-17T21:49:26;98942.44;;;8.75;94.03
39699;BME280;25372;50.582;12.250;2022-09-17T21:59:48;98948.69;;;8.67;93.88
39699;BME280;25372;50.582;12.250;2022-09-17T22:10:09;98944.38;;;8.59;95.46
39699;BME280;25372;50.582;12.250;2022-09-17T22:20:34;98926.88;;;8.58;98.23
39699;BME280;25372;50.582;12.250;2022-09-17T22:30:55;98917.22;;;8.44;96.26
39699;BME280;25372;50.582;12.250;2022-09-17T22:41:19;98912.63;;;8.52;94.19
39699;BME280;25372;50.582;12.250;2022-09-17T22:51:42;98908.34;;;8.30;99.72
39699;BME280;25372;50.582;12.250;2022-09-17T23:02:04;98933.84;;;8.16;100.00
39699;BME280;25372;50.582;12.250;2022-09-17T23:12:25;98921.03;;;8.13;100.00
39699;BME280;25372;50.582;12.250;2022-09-17T23:22:47;98900.16;;;7.96;100.00
39699;BME280;25372;50.582;12.250;2022-09-17T23:33:08;98915.50;;;8.08;100.00
39699;BME280;25372;50.582;12.250;2022-09-17T23:43:30;98899.94;;;8.13;100.00
39699;BME280;25372;50.582;12.250;2022-09-17T23:53:52;98894.88;;;8.18;100.00
